Saint Francisville, IL (62460)

1:52 PM CDT on September 01, 2014 (GMT -0500)
Mount Carmel Municipal | Change Station
CLOSE
Current Station
Airport
Location: Mount Carmel,
Elevation: 430 ft
Nearby Weather Stations

Elev 430 ft 38.61 °N, 87.73 °W | Updated 17 minutes ago

Scattered Clouds
Scattered Clouds
88 °F
Feels Like 96 °F
N
14
Wind Variable Wind from SSW

Today
High -- | Low -- °F
--% Chance of Precip.
Yesterday
High -- | Low -- °F
Precip. -- in
6:19 AM 7:20 PM
Waxing Crescent, 43% visible
Pressure 29.89 in
Visibility 10.0 miles
Clouds Scattered Clouds 2700 ft
Heat Index 96 °F
Dew Point 73 °F
Humidity 62%
Rainfall 0.00 in
Snow Depth Not available.
UV 7 out of 12
Pollen 11.00 out of 12
Air Quality Not available.
Flu Activity Not available.
METAR KAJG 011835Z AUTO 21012KT 10SM SCT027 31/23 A2989 RMK AO2

More Conditions Fewer Conditions

Pressure 29.89 in
Visibility 10.0 miles
Clouds Scattered Clouds 2700 ft
Heat Index 96 °F
Dew Point 73 °F
Humidity 62%
Rainfall 0.00 in
Snow Depth Not available.
UV 7 out of 12
Pollen 11.00 out of 12
Air Quality Not available.
Flu Activity Not available.
METAR KAJG 011835Z AUTO 21012KT 10SM SCT027 31/23 A2989 RMK AO2

More Conditions Fewer Conditions

10-Day Weather Forecast

Almanac

Astronomy

Sep. 01, 2014 Rise Set
Actual Time 6:19 AM CDT 7:20 PM CDT
Civil Twilight 5:52 AM CDT 7:47 PM CDT
Nautical Twilight 5:20 AM CDT 8:19 PM CDT
Astronomical Twilight 4:46 AM CDT 8:53 PM CDT
Moon 1:00 PM CDT 11:26 PM CDT
Length of Visible Light 13h 55m
Length of Day
13h 00m
Tomorrow will be 2m 24s shorter.
Waxing Crescent, 43% of the Moon is Illuminated
Today
Waxing Crescent
Sep 2
First Quarter
Sep 8
Full
Sep 15
Last Quarter
Sep 24
New

Today's Extremes

State Highs State Lows

Community

WunderPhotos

Upload Photos

1,749,359 photos uploaded!

Nearby

Snow Depth

Station Depth Elevation
No new snow has been reported.

Earthquake Activity

City Distance Mag. Time & Date
No recent earthquake activity has been reported nearby.
Minimum magnitude displayed is 2.5.

Coastal Water Temperatures

Place Temperature
No Stations Reporting

Nearby Weather Stations